createdAt,value
2022-10-31T00:01:42.613Z,11.18
2022-10-31T00:04:11.945Z,10.40
2022-10-31T00:06:41.190Z,11.03
2022-10-31T00:09:12.555Z,11.18
2022-10-31T00:11:41.855Z,11.10
2022-10-31T00:14:11.395Z,12.78
2022-10-31T00:16:41.782Z,13.22
2022-10-31T00:19:11.192Z,13.48
2022-10-31T00:21:40.499Z,13.78
2022-10-31T00:24:10.056Z,13.83
2022-10-31T00:26:39.269Z,14.03
2022-10-31T00:29:08.689Z,15.08
2022-10-31T00:31:38.884Z,13.25
2022-10-31T00:34:08.302Z,13.60
2022-10-31T00:36:37.888Z,13.43
2022-10-31T00:39:07.122Z,15.05
2022-10-31T00:41:36.330Z,15.43
2022-10-31T00:44:07.368Z,14.33
2022-10-31T00:46:36.722Z,13.32
2022-10-31T00:49:06.095Z,14.03
2022-10-31T00:51:35.501Z,15.90
2022-10-31T00:54:04.803Z,15.28
2022-10-31T00:56:34.051Z,14.85
2022-10-31T00:59:03.579Z,15.00
2022-10-31T01:01:33.080Z,15.85
2022-10-31T01:04:03.268Z,17.37
2022-10-31T01:06:34.265Z,16.30
2022-10-31T01:09:03.570Z,16.95
2022-10-31T01:11:33.097Z,16.40
2022-10-31T01:14:04.075Z,17.98
2022-10-31T01:16:34.282Z,16.85
2022-10-31T01:19:03.635Z,16.30
2022-10-31T01:21:32.892Z,17.48
2022-10-31T01:24:05.295Z,16.62
2022-10-31T01:26:35.247Z,17.82
2022-10-31T01:29:09.343Z,17.70
2022-10-31T01:31:40.570Z,18.07
2022-10-31T01:34:10.182Z,18.67
2022-10-31T01:36:40.008Z,19.82
2022-10-31T01:39:12.543Z,18.12
2022-10-31T01:41:44.702Z,19.25
2022-10-31T01:44:20.100Z,19.85
2022-10-31T01:46:58.532Z,19.82
2022-10-31T01:49:45.905Z,19.73
2022-10-31T01:52:33.043Z,20.15
2022-10-31T01:55:07.451Z,18.90
2022-10-31T01:57:37.924Z,19.80
2022-10-31T02:00:09.999Z,20.40
2022-10-31T02:02:45.051Z,19.75
2022-10-31T02:05:17.081Z,20.82
2022-10-31T02:07:49.468Z,20.80
2022-10-31T02:10:19.167Z,17.25
2022-10-31T02:12:48.515Z,18.35
2022-10-31T02:15:18.033Z,20.68
2022-10-31T02:17:48.386Z,22.20
2022-10-31T02:20:20.305Z,20.85
2022-10-31T02:23:13.322Z,21.65
2022-10-31T02:26:18.051Z,20.87
2022-10-31T02:29:07.167Z,23.65
2022-10-31T02:31:54.449Z,24.15
2022-10-31T02:34:33.092Z,24.60
2022-10-31T02:37:14.668Z,25.48
2022-10-31T02:40:10.988Z,25.82
2022-10-31T02:43:03.824Z,25.52
2022-10-31T02:45:36.660Z,24.80
2022-10-31T02:50:39.135Z,23.70
2022-10-31T02:53:08.615Z,24.65
2022-10-31T02:55:41.254Z,25.27
2022-10-31T02:58:16.570Z,25.30
2022-10-31T03:01:11.836Z,25.95
2022-10-31T03:03:47.271Z,24.32
2022-10-31T03:06:36.303Z,25.55
2022-10-31T03:09:26.896Z,25.88
2022-10-31T03:12:17.058Z,26.48
2022-10-31T03:14:52.157Z,26.45
2022-10-31T03:17:24.687Z,26.25
2022-10-31T03:22:25.873Z,15.40
2022-10-31T03:24:56.156Z,14.40
2022-10-31T03:27:27.825Z,17.90
2022-10-31T03:29:59.657Z,20.63
2022-10-31T03:32:36.767Z,22.27
2022-10-31T03:35:08.124Z,22.70
2022-10-31T03:37:38.510Z,22.37
2022-10-31T03:40:10.983Z,23.00
2022-10-31T03:42:43.355Z,24.40
2022-10-31T03:45:17.825Z,24.20
2022-10-31T03:47:47.128Z,24.23
2022-10-31T03:50:18.308Z,22.80
2022-10-31T03:53:03.389Z,24.80
2022-10-31T03:55:35.802Z,23.30
2022-10-31T03:58:10.776Z,24.32
2022-10-31T04:00:42.406Z,24.57
2022-10-31T04:03:21.082Z,25.52
2022-10-31T04:05:53.198Z,24.52
2022-10-31T04:08:25.570Z,24.70
2022-10-31T04:10:56.383Z,25.60
2022-10-31T04:13:31.163Z,26.57
2022-10-31T04:16:02.130Z,25.65
2022-10-31T04:18:31.483Z,25.77
2022-10-31T04:21:06.107Z,26.45
2022-10-31T04:23:36.800Z,26.42
2022-10-31T04:26:07.809Z,26.93
2022-10-31T04:28:37.437Z,28.17
2022-10-31T04:31:07.891Z,29.15
2022-10-31T04:33:38.999Z,28.85
2022-10-31T04:36:08.869Z,28.30
2022-10-31T04:38:38.418Z,24.85
2022-10-31T04:41:09.330Z,24.92
2022-10-31T04:43:46.239Z,26.80
2022-10-31T04:46:15.707Z,28.20
2022-10-31T04:48:45.471Z,27.70
2022-10-31T04:51:14.949Z,28.52
2022-10-31T04:53:44.903Z,27.87
2022-10-31T04:56:34.158Z,27.77
2022-10-31T04:59:05.116Z,29.75
2022-10-31T05:01:36.241Z,29.98
2022-10-31T05:04:05.973Z,28.95
2022-10-31T05:06:35.263Z,30.43
2022-10-31T05:09:05.073Z,28.52
2022-10-31T05:11:34.336Z,29.77
2022-10-31T05:14:05.457Z,31.33
2022-10-31T05:16:36.533Z,32.03
2022-10-31T05:19:26.253Z,31.37
2022-10-31T05:22:00.304Z,32.10
2022-10-31T05:24:31.265Z,30.37
2022-10-31T05:27:00.677Z,31.10
2022-10-31T05:29:31.571Z,32.20
2022-10-31T05:32:01.365Z,31.10
2022-10-31T05:34:35.090Z,31.30
2022-10-31T05:37:09.152Z,31.62
2022-10-31T05:39:39.624Z,33.25
2022-10-31T05:42:10.575Z,32.25
2022-10-31T05:44:39.838Z,33.98
2022-10-31T05:47:16.958Z,35.10
2022-10-31T05:50:00.269Z,36.23
2022-10-31T05:52:51.464Z,34.85
2022-10-31T05:55:22.395Z,35.45
2022-10-31T05:57:53.993Z,35.25
2022-10-31T06:00:24.011Z,36.30
2022-10-31T06:03:01.744Z,36.23
2022-10-31T06:05:54.951Z,35.23
2022-10-31T06:08:22.609Z,36.25
2022-10-31T06:10:54.024Z,34.95
2022-10-31T06:15:57.054Z,35.33
2022-10-31T06:18:27.955Z,36.95
2022-10-31T06:20:57.234Z,35.65
2022-10-31T06:23:26.898Z,35.78
2022-10-31T06:25:57.950Z,36.42
2022-10-31T06:28:27.503Z,37.15
2022-10-31T06:30:58.511Z,36.58
2022-10-31T06:33:28.165Z,33.95
2022-10-31T06:35:59.267Z,36.80
2022-10-31T06:38:29.435Z,35.40
2022-10-31T06:40:59.288Z,34.75
2022-10-31T06:43:29.624Z,34.60
2022-10-31T06:46:05.497Z,32.55
2022-10-31T06:48:36.581Z,32.88
2022-10-31T06:51:07.536Z,32.20
2022-10-31T06:53:36.769Z,31.07
2022-10-31T06:56:06.982Z,30.88
2022-10-31T06:58:37.995Z,29.95
2022-10-31T07:01:08.948Z,31.77
2022-10-31T07:03:38.297Z,31.20
2022-10-31T07:06:07.972Z,30.10
2022-10-31T07:08:37.366Z,31.82
2022-10-31T07:11:06.940Z,30.77
2022-10-31T07:13:36.559Z,29.20
2022-10-31T07:16:08.966Z,30.20
2022-10-31T07:18:38.624Z,28.67
2022-10-31T07:21:09.678Z,25.68
2022-10-31T07:23:38.999Z,25.88
2022-10-31T07:26:27.150Z,24.72
2022-10-31T07:28:56.540Z,24.65
2022-10-31T07:31:26.838Z,25.08
2022-10-31T07:33:57.803Z,24.80
2022-10-31T07:36:31.488Z,23.73
2022-10-31T07:39:03.310Z,22.67
2022-10-31T07:41:34.449Z,21.73
2022-10-31T07:44:04.785Z,20.77
2022-10-31T07:46:38.794Z,22.17
2022-10-31T07:49:12.824Z,22.10
2022-10-31T07:52:00.232Z,24.82
2022-10-31T07:54:47.379Z,24.63
2022-10-31T07:57:21.467Z,25.77
2022-10-31T07:59:49.511Z,25.30
2022-10-31T08:02:19.505Z,25.00
2022-10-31T08:04:57.185Z,26.17
2022-10-31T08:07:43.440Z,26.65
2022-10-31T08:10:14.430Z,27.13
2022-10-31T08:12:43.845Z,26.65
2022-10-31T08:15:13.385Z,25.92
2022-10-31T08:17:42.669Z,25.82
2022-10-31T08:20:12.681Z,25.68
2022-10-31T08:22:44.053Z,24.67
2022-10-31T08:25:14.036Z,24.52
2022-10-31T08:27:44.861Z,24.70
2022-10-31T08:30:16.082Z,25.32
2022-10-31T08:32:47.312Z,25.95
2022-10-31T08:35:35.156Z,26.77
2022-10-31T08:38:21.319Z,27.50
2022-10-31T08:40:51.809Z,27.02
2022-10-31T08:43:22.338Z,27.10
2022-10-31T08:45:54.115Z,26.85
2022-10-31T08:50:55.819Z,27.05
2022-10-31T08:53:26.473Z,27.52
2022-10-31T08:55:58.453Z,27.62
2022-10-31T08:58:28.313Z,26.62
2022-10-31T09:01:01.294Z,26.75
2022-10-31T09:03:32.861Z,26.80
2022-10-31T09:06:04.336Z,26.82
2022-10-31T09:08:34.561Z,27.10
2022-10-31T09:11:04.382Z,27.32
2022-10-31T09:13:51.641Z,27.35
2022-10-31T09:16:37.489Z,26.97
2022-10-31T09:19:11.453Z,25.90
2022-10-31T09:21:38.898Z,26.10
2022-10-31T09:24:08.823Z,24.63
2022-10-31T09:26:38.222Z,24.50
2022-10-31T09:29:10.501Z,22.95
2022-10-31T09:31:44.953Z,22.30
2022-10-31T09:34:28.823Z,22.35
2022-10-31T09:36:59.936Z,22.65
2022-10-31T09:39:29.852Z,23.52
2022-10-31T09:42:24.751Z,22.98
2022-10-31T09:45:10.976Z,21.50
2022-10-31T09:47:58.579Z,20.43
2022-10-31T09:50:50.759Z,20.60
2022-10-31T09:53:50.512Z,20.07
2022-10-31T09:56:23.176Z,21.48
2022-10-31T09:58:56.627Z,20.55
2022-10-31T10:01:32.245Z,20.72
2022-10-31T10:04:04.871Z,21.70
2022-10-31T10:06:47.148Z,21.48
2022-10-31T10:09:33.167Z,20.72
2022-10-31T10:12:26.909Z,22.02
2022-10-31T10:15:19.767Z,21.57
2022-10-31T10:18:01.873Z,22.00
2022-10-31T10:20:53.233Z,23.02
2022-10-31T10:23:34.822Z,23.05
2022-10-31T10:26:11.360Z,22.98
2022-10-31T10:28:43.774Z,24.15
2022-10-31T10:31:19.414Z,24.80
2022-10-31T10:34:17.709Z,24.98
2022-10-31T10:36:55.986Z,26.77
2022-10-31T10:39:31.843Z,24.77
2022-10-31T10:42:19.855Z,26.37
2022-10-31T10:45:08.698Z,27.17
2022-10-31T10:47:43.910Z,26.20
2022-10-31T10:50:19.152Z,27.58
2022-10-31T10:52:51.537Z,28.50
2022-10-31T10:55:30.122Z,28.70
2022-10-31T10:58:10.101Z,28.83
2022-10-31T11:00:51.068Z,28.73
2022-10-31T11:03:20.585Z,31.87
2022-10-31T11:06:02.229Z,29.95
2022-10-31T11:08:36.694Z,30.60
2022-10-31T11:11:21.394Z,31.00
2022-10-31T11:13:52.058Z,32.42
2022-10-31T11:16:43.149Z,33.30
2022-10-31T11:19:18.640Z,33.98
2022-10-31T11:21:53.940Z,33.85
2022-10-31T11:24:22.269Z,35.30
2022-10-31T11:27:00.024Z,35.83
2022-10-31T11:29:29.369Z,34.30
2022-10-31T11:32:01.008Z,34.67
2022-10-31T11:34:42.513Z,35.60
2022-10-31T11:37:18.223Z,35.78
2022-10-31T11:39:52.273Z,33.78
2022-10-31T11:42:24.216Z,34.85
2022-10-31T11:44:55.686Z,36.17
2022-10-31T11:47:30.665Z,35.40
2022-10-31T11:50:03.345Z,35.70
2022-10-31T11:55:05.096Z,35.52
2022-10-31T12:00:06.077Z,35.80
2022-10-31T12:02:40.684Z,35.83
2022-10-31T12:05:26.057Z,35.33
2022-10-31T12:07:59.243Z,35.50
2022-10-31T12:10:29.574Z,35.63
2022-10-31T12:15:37.656Z,33.83
2022-10-31T12:18:26.592Z,35.05
2022-10-31T12:21:01.902Z,35.08
2022-10-31T12:23:34.301Z,35.13
2022-10-31T12:26:09.491Z,35.40
2022-10-31T12:29:05.930Z,36.50
2022-10-31T12:31:44.256Z,36.53
2022-10-31T12:34:49.178Z,37.25
2022-10-31T12:37:49.992Z,36.73
2022-10-31T12:40:43.366Z,36.30
2022-10-31T12:43:38.401Z,36.45
2022-10-31T12:46:27.060Z,37.38
2022-10-31T12:49:25.329Z,37.42
2022-10-31T12:51:57.739Z,39.03
2022-10-31T12:54:51.482Z,38.67
2022-10-31T12:57:38.946Z,38.48
2022-10-31T13:00:19.342Z,38.33
2022-10-31T13:02:56.560Z,37.23
2022-10-31T13:05:37.542Z,37.70
2022-10-31T13:08:12.889Z,36.38
2022-10-31T13:10:50.442Z,37.28
2022-10-31T13:13:28.698Z,36.20
2022-10-31T13:16:04.056Z,36.93
2022-10-31T13:18:39.100Z,37.93
2022-10-31T13:21:10.748Z,36.15
2022-10-31T13:23:51.040Z,36.48
2022-10-31T13:28:51.402Z,37.00
2022-10-31T13:31:21.158Z,37.10
2022-10-31T13:33:55.494Z,35.65
2022-10-31T13:36:37.359Z,37.58
2022-10-31T13:39:26.486Z,36.50
2022-10-31T13:41:59.284Z,36.40
2022-10-31T13:44:37.398Z,37.48
2022-10-31T13:47:02.868Z,37.42
2022-10-31T13:49:35.493Z,38.23
2022-10-31T13:54:46.722Z,37.95
2022-10-31T13:57:21.580Z,37.70
2022-10-31T14:00:06.292Z,38.10
2022-10-31T14:02:38.335Z,38.40
2022-10-31T14:05:22.848Z,38.67
2022-10-31T14:07:53.288Z,38.58
2022-10-31T14:10:34.689Z,38.95
2022-10-31T14:13:19.418Z,38.98
2022-10-31T14:16:01.022Z,39.33
2022-10-31T14:18:35.645Z,40.05
2022-10-31T14:21:26.313Z,39.10
2022-10-31T14:23:56.103Z,39.33
2022-10-31T14:26:32.016Z,39.48
2022-10-31T14:29:04.290Z,39.38
2022-10-31T14:31:41.575Z,39.38
2022-10-31T14:34:20.373Z,38.42
2022-10-31T14:37:08.887Z,39.42
2022-10-31T14:39:44.666Z,39.25
2022-10-31T14:42:26.033Z,40.20
2022-10-31T14:45:01.590Z,38.92
2022-10-31T14:47:36.615Z,39.10
2022-10-31T14:50:27.967Z,38.70
2022-10-31T14:52:59.592Z,38.55
2022-10-31T14:55:29.152Z,37.20
2022-10-31T14:58:01.792Z,37.20
2022-10-31T15:03:05.905Z,36.35
2022-10-31T15:05:37.313Z,36.65
2022-10-31T15:08:09.280Z,34.73
2022-10-31T15:10:40.561Z,35.25
2022-10-31T15:13:18.516Z,35.50
2022-10-31T15:15:52.176Z,35.30
2022-10-31T15:18:22.617Z,35.00
2022-10-31T15:23:34.160Z,33.18
2022-10-31T15:26:06.118Z,34.55
2022-10-31T15:28:35.704Z,34.13
2022-10-31T15:31:05.289Z,34.20
2022-10-31T15:33:47.961Z,32.83
2022-10-31T15:36:29.258Z,32.45
2022-10-31T15:38:59.155Z,30.25
2022-10-31T15:41:41.149Z,28.30
2022-10-31T15:44:16.136Z,28.30
2022-10-31T15:46:45.734Z,26.20
2022-10-31T15:49:20.833Z,26.55
2022-10-31T15:51:54.124Z,24.90
2022-10-31T15:54:21.684Z,25.10
2022-10-31T15:56:51.337Z,25.00
2022-10-31T15:59:25.563Z,24.18
2022-10-31T16:02:03.448Z,24.00
2022-10-31T16:04:32.934Z,25.62
2022-10-31T16:07:04.572Z,24.43
2022-10-31T16:09:33.861Z,24.75
2022-10-31T16:12:03.149Z,25.32
2022-10-31T16:14:34.796Z,24.95
2022-10-31T16:17:04.080Z,24.45
2022-10-31T16:19:38.424Z,24.37
2022-10-31T16:22:13.260Z,24.87
2022-10-31T16:24:47.395Z,26.70
2022-10-31T16:27:26.648Z,26.15
2022-10-31T16:29:57.295Z,24.27
2022-10-31T16:32:38.851Z,25.65
2022-10-31T16:35:14.442Z,24.10
2022-10-31T16:37:44.015Z,24.52
2022-10-31T16:40:14.512Z,24.18
2022-10-31T16:42:44.514Z,26.52
2022-10-31T16:45:25.785Z,25.15
2022-10-31T16:47:55.025Z,24.02
2022-10-31T16:50:27.081Z,23.30
2022-10-31T16:55:27.671Z,23.87
2022-10-31T16:57:58.396Z,25.15
2022-10-31T17:00:29.336Z,25.82
2022-10-31T17:02:59.082Z,25.15
2022-10-31T17:05:30.358Z,25.68
2022-10-31T17:08:00.767Z,24.63
2022-10-31T17:10:30.488Z,25.72
2022-10-31T17:13:00.356Z,25.95
2022-10-31T17:15:30.808Z,26.48
2022-10-31T17:18:00.751Z,27.42
2022-10-31T17:20:31.905Z,26.27
2022-10-31T17:23:01.734Z,26.35
2022-10-31T17:25:32.232Z,25.95
2022-10-31T17:28:01.618Z,25.68
2022-10-31T17:30:31.370Z,25.92
2022-10-31T17:33:01.314Z,27.17
2022-10-31T17:35:30.988Z,26.20
2022-10-31T17:38:00.528Z,26.02
2022-10-31T17:40:29.901Z,25.97
2022-10-31T17:42:59.966Z,26.60
2022-10-31T17:45:29.525Z,26.68
2022-10-31T17:47:58.846Z,25.48
2022-10-31T17:50:28.849Z,26.20
2022-10-31T17:52:59.853Z,25.90
2022-10-31T17:55:34.384Z,25.85
2022-10-31T17:58:00.687Z,25.97
2022-10-31T18:00:29.908Z,25.95
2022-10-31T18:02:59.833Z,25.62
2022-10-31T18:05:29.421Z,26.07
2022-10-31T18:08:03.817Z,26.82
2022-10-31T18:10:31.043Z,25.12
2022-10-31T18:13:00.811Z,24.90
2022-10-31T18:15:30.415Z,25.02
2022-10-31T18:18:00.181Z,24.07
2022-10-31T18:20:29.815Z,23.87
2022-10-31T18:22:59.078Z,23.15
2022-10-31T18:25:28.592Z,21.80
2022-10-31T18:27:58.993Z,23.47
2022-10-31T18:30:28.682Z,24.10
2022-10-31T18:32:57.972Z,21.33
2022-10-31T18:35:27.208Z,29.70
2022-10-31T18:37:59.278Z,23.32
2022-10-31T18:40:27.519Z,23.92
2022-10-31T18:42:56.798Z,19.65
2022-10-31T18:45:45.963Z,18.07
2022-10-31T18:47:57.541Z,18.02
2022-10-31T18:50:27.107Z,17.02
2022-10-31T18:52:56.511Z,16.42
2022-10-31T18:55:25.911Z,17.23
2022-10-31T18:57:55.258Z,18.20
2022-10-31T19:00:24.659Z,18.00
2022-10-31T19:02:56.480Z,15.38
2022-10-31T19:05:24.961Z,15.10
2022-10-31T19:07:54.338Z,15.25
2022-10-31T19:10:23.661Z,14.90
2022-10-31T19:12:53.196Z,16.27
2022-10-31T19:15:22.477Z,17.90
2022-10-31T19:17:52.022Z,19.25
2022-10-31T19:20:21.374Z,17.77
2022-10-31T19:22:50.972Z,15.50
2022-10-31T19:25:20.407Z,18.17
2022-10-31T19:27:50.196Z,16.00
2022-10-31T19:30:21.381Z,15.25
2022-10-31T19:32:52.440Z,14.75
2022-10-31T19:35:21.838Z,17.10
2022-10-31T19:37:51.179Z,13.72
2022-10-31T19:40:20.994Z,13.53
2022-10-31T19:46:01.384Z,13.60
2022-10-31T19:48:31.469Z,13.98
2022-10-31T19:51:04.979Z,12.68
2022-10-31T19:53:34.898Z,13.20
2022-10-31T19:56:04.622Z,12.50
2022-10-31T19:58:34.322Z,12.45
2022-10-31T20:01:11.634Z,12.07
2022-10-31T20:03:42.591Z,12.20
2022-10-31T20:06:26.729Z,20.17
2022-10-31T20:08:57.473Z,12.07
2022-10-31T20:11:28.549Z,11.83
2022-10-31T20:13:59.148Z,12.68
2022-10-31T20:16:29.320Z,11.93
2022-10-31T20:18:59.822Z,12.53
2022-10-31T20:21:31.039Z,12.53
2022-10-31T20:24:02.084Z,12.65
2022-10-31T20:26:32.900Z,11.90
2022-10-31T20:29:03.335Z,12.43
2022-10-31T20:31:35.377Z,13.53
2022-10-31T20:34:05.036Z,13.43
2022-10-31T20:36:34.711Z,13.08
2022-10-31T20:39:04.795Z,13.72
2022-10-31T20:41:35.894Z,14.23
2022-10-31T20:44:05.353Z,13.13
2022-10-31T20:46:34.773Z,12.43
2022-10-31T20:49:04.261Z,12.03
2022-10-31T20:51:33.742Z,12.63
2022-10-31T20:54:03.163Z,11.83
2022-10-31T20:56:32.453Z,11.97
2022-10-31T20:59:01.854Z,12.33
2022-10-31T21:01:33.658Z,11.75
2022-10-31T21:04:04.965Z,12.37
2022-10-31T21:06:34.419Z,12.85
2022-10-31T21:09:03.943Z,14.63
2022-10-31T21:11:34.937Z,14.95
2022-10-31T21:14:04.630Z,12.90
2022-10-31T21:16:36.336Z,13.22
2022-10-31T21:19:06.297Z,11.77
2022-10-31T21:21:37.136Z,11.70
2022-10-31T21:24:09.488Z,13.18
2022-10-31T21:26:41.672Z,12.13
2022-10-31T21:29:11.903Z,13.90
2022-10-31T21:31:41.661Z,11.78
2022-10-31T21:34:11.462Z,13.88
2022-10-31T21:36:40.759Z,16.52
2022-10-31T21:39:11.659Z,13.45
2022-10-31T21:41:40.948Z,15.30
2022-10-31T21:44:10.262Z,11.55
2022-10-31T21:46:40.025Z,10.23
2022-10-31T21:49:11.149Z,10.08
2022-10-31T21:51:42.381Z,10.00
2022-10-31T21:54:30.006Z,10.23
2022-10-31T21:57:00.675Z,9.88
2022-10-31T21:59:30.584Z,10.20
2022-10-31T22:02:01.062Z,9.70
2022-10-31T22:04:30.391Z,9.08
2022-10-31T22:06:59.981Z,9.53
2022-10-31T22:09:29.294Z,10.35
2022-10-31T22:11:59.814Z,10.18
2022-10-31T22:14:29.236Z,10.10
2022-10-31T22:16:58.525Z,9.80
2022-10-31T22:19:27.784Z,10.95
2022-10-31T22:21:57.348Z,10.32
2022-10-31T22:24:26.570Z,10.90
2022-10-31T22:26:55.796Z,10.13
2022-10-31T22:29:26.679Z,10.55
2022-10-31T22:31:59.522Z,9.95
2022-10-31T22:34:27.109Z,10.43
2022-10-31T22:36:56.685Z,9.88
2022-10-31T22:39:26.101Z,10.43
2022-10-31T22:41:55.319Z,9.88
2022-10-31T22:44:24.726Z,9.93
2022-10-31T22:46:54.017Z,10.68
2022-10-31T22:49:23.489Z,10.28
2022-10-31T22:51:52.819Z,10.32
2022-10-31T22:54:22.205Z,10.90
2022-10-31T22:56:51.443Z,10.63
2022-10-31T22:59:20.767Z,10.55
2022-10-31T23:01:50.164Z,10.82
2022-10-31T23:04:19.625Z,11.43
2022-10-31T23:06:49.129Z,11.25
2022-10-31T23:09:18.741Z,11.40
2022-10-31T23:11:47.962Z,10.85
2022-10-31T23:14:21.000Z,11.35
2022-10-31T23:16:56.023Z,11.75
2022-10-31T23:19:30.413Z,11.18
2022-10-31T23:22:03.947Z,10.80
2022-10-31T23:24:38.605Z,11.15
2022-10-31T23:27:23.037Z,11.55
2022-10-31T23:29:54.481Z,10.65
2022-10-31T23:32:33.727Z,11.00
2022-10-31T23:35:05.858Z,10.78
2022-10-31T23:37:37.095Z,10.38
2022-10-31T23:40:08.535Z,10.58
2022-10-31T23:42:37.949Z,10.70
2022-10-31T23:45:08.131Z,10.93
2022-10-31T23:47:42.429Z,10.43
2022-10-31T23:50:09.440Z,10.80
2022-10-31T23:52:38.798Z,10.93
2022-10-31T23:55:08.715Z,10.13
2022-10-31T23:57:37.952Z,10.20
